Time;durP1;ratioP1;P1;durP2;ratioP2;P2;SDS_P1;SDS_P2;PMS_P1;PMS_P2;Temp;Humidity;BMP_temperature;BMP_pressure;BME280_temperature;BME280_humidity;BME280_pressure;Samples;Min_cycle;Max_cycle;Signal;HPM_P1;HPM_P2
2022/09/18 00:02:03;;;;;;;8.98;1.83;;;;;;;;;;5048177;28;20048;-73
2022/09/18 00:04:34;;;;;;;7.70;1.83;;;;;;;;;;5047503;28;20056;-73
2022/09/18 00:07:06;;;;;;;9.25;1.92;;;;;;;;;;5029994;28;20290;-73
2022/09/18 00:09:37;;;;;;;9.23;1.92;;;;;;;;;;5048743;28;20522;-73
2022/09/18 00:12:07;;;;;;;7.80;2.10;;;;;;;;;;5047750;28;20048;-72
2022/09/18 00:14:38;;;;;;;13.27;2.72;;;;;;;;;;5047812;28;20057;-73
2022/09/18 00:17:11;;;;;;;12.52;2.10;;;;;;;;;;5047794;28;20052;-72
2022/09/18 00:19:42;;;;;;;7.72;1.98;;;;;;;;;;5047427;28;20044;-71
2022/09/18 00:22:12;;;;;;;5.45;2.00;;;;;;;;;;5047723;28;20087;-72
2022/09/18 00:24:43;;;;;;;8.95;2.40;;;;;;;;;;5047276;28;20053;-72
2022/09/18 00:27:14;;;;;;;8.30;1.70;;;;;;;;;;5047468;28;20399;-72
2022/09/18 00:29:45;;;;;;;4.68;1.52;;;;;;;;;;5047803;28;20045;-72
2022/09/18 00:32:15;;;;;;;6.03;1.67;;;;;;;;;;5047313;28;20399;-72
2022/09/18 00:34:45;;;;;;;8.05;1.95;;;;;;;;;;5047477;28;20041;-72
2022/09/18 00:37:16;;;;;;;8.48;1.83;;;;;;;;;;5048074;28;20044;-72
2022/09/18 00:39:47;;;;;;;5.53;1.77;;;;;;;;;;5047535;28;20052;-72
2022/09/18 00:42:19;;;;;;;5.90;1.98;;;;;;;;;;5047059;28;20041;-72
2022/09/18 00:44:49;;;;;;;5.28;1.67;;;;;;;;;;5045579;28;20052;-71
2022/09/18 00:47:43;;;;;;;9.95;2.00;;;;;;;;;;5047229;28;20511;-72
2022/09/18 00:50:24;;;;;;;9.60;1.83;;;;;;;;;;5047805;28;20044;-72
2022/09/18 00:53:00;;;;;;;6.43;1.77;;;;;;;;;;5046978;28;20044;-71
2022/09/18 00:55:41;;;;;;;7.72;1.83;;;;;;;;;;5039775;28;20377;-72
2022/09/18 00:58:12;;;;;;;7.82;1.85;;;;;;;;;;5026633;28;20077;-72
2022/09/18 01:00:43;;;;;;;8.07;2.03;;;;;;;;;;5016844;28;20048;-72
2022/09/18 01:03:13;;;;;;;9.25;1.92;;;;;;;;;;5016207;28;20780;-72
2022/09/18 01:06:14;;;;;;;12.07;2.40;;;;;;;;;;5015735;28;20050;-72
2022/09/18 01:08:56;;;;;;;4.07;1.13;;;;;;;;;;5025283;28;20617;-71
2022/09/18 01:12:06;;;;;;;3.88;1.70;;;;;;;;;;5025961;28;20037;-72
2022/09/18 01:15:07;;;;;;;6.00;1.85;;;;;;;;;;5020428;28;20508;-72
2022/09/18 01:17:55;;;;;;;5.88;1.60;;;;;;;;;;5026304;28;20045;-72
2022/09/18 01:20:46;;;;;;;5.22;1.80;;;;;;;;;;5025100;28;20060;-72
2022/09/18 01:23:32;;;;;;;7.13;1.90;;;;;;;;;;5024981;28;20531;-73
2022/09/18 01:26:27;;;;;;;3.95;1.52;;;;;;;;;;5025280;28;20056;-72
2022/09/18 01:29:10;;;;;;;7.75;1.58;;;;;;;;;;5026620;28;20034;-72
2022/09/18 01:32:10;;;;;;;5.95;1.88;;;;;;;;;;5024895;28;20053;-72
2022/09/18 01:34:50;;;;;;;9.95;1.80;;;;;;;;;;5025571;28;20049;-72
2022/09/18 01:37:43;;;;;;;5.55;1.50;;;;;;;;;;5026696;28;20041;-74
2022/09/18 01:40:20;;;;;;;12.02;2.88;;;;;;;;;;5026709;28;20103;-72
2022/09/18 01:42:55;;;;;;;13.40;2.47;;;;;;;;;;5026582;28;20041;-72
2022/09/18 01:45:45;;;;;;;5.28;2.05;;;;;;;;;;5025383;28;20053;-72
2022/09/18 01:48:31;;;;;;;9.73;2.33;;;;;;;;;;5025294;28;20539;-71
2022/09/18 01:51:11;;;;;;;11.45;2.63;;;;;;;;;;5025629;28;20046;-71
2022/09/18 01:53:49;;;;;;;6.70;2.45;;;;;;;;;;5027364;28;20049;-71
2022/09/18 01:56:38;;;;;;;8.15;2.22;;;;;;;;;;5025282;28;20511;-71
2022/09/18 01:59:13;;;;;;;5.78;1.92;;;;;;;;;;5024873;28;20049;-74
2022/09/18 02:02:05;;;;;;;7.13;1.85;;;;;;;;;;5025209;28;20065;-72
2022/09/18 02:04:39;;;;;;;7.78;2.20;;;;;;;;;;5026919;28;20419;-72
2022/09/18 02:07:21;;;;;;;5.00;1.95;;;;;;;;;;5024639;28;20050;-71
2022/09/18 02:09:51;;;;;;;7.88;1.88;;;;;;;;;;5025105;28;20053;-72
2022/09/18 02:12:26;;;;;;;6.10;1.67;;;;;;;;;;5025078;28;20849;-72
2022/09/18 02:15:08;;;;;;;7.70;2.00;;;;;;;;;;5025287;28;20408;-71
2022/09/18 02:17:59;;;;;;;7.57;1.95;;;;;;;;;;5025972;28;20045;-73
2022/09/18 02:20:43;;;;;;;13.68;2.22;;;;;;;;;;5028526;28;20049;-72
2022/09/18 02:23:13;;;;;;;10.23;2.42;;;;;;;;;;5030818;28;20052;-72
2022/09/18 02:25:54;;;;;;;9.10;2.40;;;;;;;;;;5030280;28;20497;-72
2022/09/18 02:28:26;;;;;;;5.53;1.98;;;;;;;;;;5028550;28;20060;-72
2022/09/18 02:30:58;;;;;;;8.93;1.92;;;;;;;;;;5028240;28;20069;-72
2022/09/18 02:33:36;;;;;;;7.15;2.00;;;;;;;;;;5029744;28;20049;-72
2022/09/18 02:36:34;;;;;;;10.60;2.30;;;;;;;;;;5030808;28;20053;-72
2022/09/18 02:39:38;;;;;;;9.18;2.28;;;;;;;;;;5029572;28;20049;-72
2022/09/18 02:42:37;;;;;;;10.13;2.20;;;;;;;;;;5027740;28;20049;-72
2022/09/18 02:45:21;;;;;;;9.40;2.83;;;;;;;;;;5028916;28;20053;-72
2022/09/18 02:47:52;;;;;;;9.23;2.75;;;;;;;;;;5028088;28;20061;-72
2022/09/18 02:50:50;;;;;;;6.40;2.03;;;;;;;;;;5028211;28;20056;-72
2022/09/18 02:53:32;;;;;;;7.97;1.70;;;;;;;;;;5027424;28;20068;-72
2022/09/18 02:56:16;;;;;;;7.93;2.17;;;;;;;;;;5028055;28;20076;-72
2022/09/18 02:59:02;;;;;;;6.38;1.55;;;;;;;;;;5027976;28;20045;-72
2022/09/18 03:01:33;;;;;;;9.02;1.65;;;;;;;;;;5027597;28;20103;-71
2022/09/18 03:04:09;;;;;;;6.38;1.70;;;;;;;;;;5028013;28;20053;-72
2022/09/18 03:07:05;;;;;;;8.68;1.98;;;;;;;;;;5027299;28;20049;-72
2022/09/18 03:09:42;;;;;;;7.78;2.00;;;;;;;;;;5028010;28;20053;-72
2022/09/18 03:12:15;;;;;;;4.85;1.65;;;;;;;;;;5027796;28;20053;-72
2022/09/18 03:14:48;;;;;;;8.40;2.10;;;;;;;;;;5027642;28;20049;-72
2022/09/18 03:17:19;;;;;;;8.73;2.30;;;;;;;;;;5028389;28;20045;-72
2022/09/18 03:19:49;;;;;;;7.82;2.30;;;;;;;;;;5027849;28;20049;-72
2022/09/18 03:22:19;;;;;;;6.32;2.10;;;;;;;;;;5027412;28;20050;-72
2022/09/18 03:24:49;;;;;;;6.60;2.50;;;;;;;;;;5027367;28;20049;-72
2022/09/18 03:27:19;;;;;;;6.45;1.95;;;;;;;;;;5027162;28;20049;-72
2022/09/18 03:29:49;;;;;;;7.00;2.10;;;;;;;;;;5027298;28;20049;-72
2022/09/18 03:32:24;;;;;;;9.60;2.60;;;;;;;;;;5027371;28;20427;-71
2022/09/18 03:34:55;;;;;;;8.60;2.17;;;;;;;;;;5029200;28;20049;-72
2022/09/18 03:37:28;;;;;;;7.75;2.60;;;;;;;;;;5027562;28;20056;-72
2022/09/18 03:39:59;;;;;;;4.97;2.25;;;;;;;;;;5027642;28;20064;-72
2022/09/18 03:42:30;;;;;;;9.27;2.60;;;;;;;;;;5027611;28;20061;-72
2022/09/18 03:45:01;;;;;;;8.05;2.80;;;;;;;;;;5028598;28;20062;-72
2022/09/18 03:47:32;;;;;;;9.10;2.53;;;;;;;;;;5027565;28;20412;-72
2022/09/18 03:50:05;;;;;;;7.72;2.70;;;;;;;;;;5026670;28;20049;-72
2022/09/18 03:52:37;;;;;;;4.53;2.25;;;;;;;;;;5027478;28;20061;-72
2022/09/18 03:55:23;;;;;;;7.97;2.38;;;;;;;;;;5027763;28;20439;-73
2022/09/18 03:58:06;;;;;;;5.88;2.28;;;;;;;;;;5029800;28;20510;-72
2022/09/18 04:00:54;;;;;;;11.48;2.65;;;;;;;;;;5033158;28;20053;-72
2022/09/18 04:03:34;;;;;;;6.95;2.80;;;;;;;;;;5026600;28;20598;-74
2022/09/18 04:06:40;;;;;;;5.35;2.28;;;;;;;;;;5006446;28;20054;-73
2022/09/18 04:09:33;;;;;;;7.10;2.33;;;;;;;;;;4999333;28;20057;-72
2022/09/18 04:12:04;;;;;;;9.98;2.50;;;;;;;;;;5011078;28;20064;-72
2022/09/18 04:14:35;;;;;;;7.90;2.85;;;;;;;;;;5026628;28;20072;-72
2022/09/18 04:17:05;;;;;;;8.00;2.50;;;;;;;;;;5026053;28;20061;-72
2022/09/18 04:19:35;;;;;;;4.78;2.38;;;;;;;;;;5027847;28;20045;-71
2022/09/18 04:22:07;;;;;;;6.53;2.35;;;;;;;;;;5027014;28;20045;-72
2022/09/18 04:24:39;;;;;;;8.02;2.70;;;;;;;;;;5026952;28;20061;-72
2022/09/18 04:27:10;;;;;;;6.63;2.45;;;;;;;;;;5027619;28;20056;-71
2022/09/18 04:29:40;;;;;;;4.78;2.28;;;;;;;;;;5026473;28;20058;-72
2022/09/18 04:32:13;;;;;;;5.90;2.53;;;;;;;;;;5026632;28;20076;-72
2022/09/18 04:34:43;;;;;;;6.00;2.72;;;;;;;;;;5027908;28;20400;-72
2022/09/18 04:37:14;;;;;;;8.18;2.72;;;;;;;;;;5027231;28;20064;-72
2022/09/18 04:39:46;;;;;;;7.15;2.55;;;;;;;;;;5027545;28;20049;-72
2022/09/18 04:42:16;;;;;;;7.97;3.45;;;;;;;;;;5025750;28;20050;-71
2022/09/18 04:44:46;;;;;;;7.03;2.35;;;;;;;;;;5025699;28;20412;-72
2022/09/18 04:47:17;;;;;;;6.65;2.55;;;;;;;;;;5026259;28;20499;-72
2022/09/18 04:49:47;;;;;;;13.55;3.00;;;;;;;;;;5026882;28;20050;-73
2022/09/18 04:52:19;;;;;;;7.57;2.80;;;;;;;;;;5026270;28;20535;-72
2022/09/18 04:54:50;;;;;;;7.40;2.65;;;;;;;;;;5025763;28;20057;-72
2022/09/18 04:57:19;;;;;;;4.57;2.58;;;;;;;;;;5026115;28;20056;-72
2022/09/18 04:59:50;;;;;;;10.80;3.63;;;;;;;;;;5026341;28;20053;-72
2022/09/18 05:02:19;;;;;;;;;;;;;;;;;;5025783;28;20053;-72
2022/09/18 05:04:52;;;;;;;7.43;3.00;;;;;;;;;;5024620;28;19921;-72
2022/09/18 05:07:30;;;;;;;7.60;2.50;;;;;;;;;;5026447;28;20061;-72
2022/09/18 05:10:01;;;;;;;6.05;3.25;;;;;;;;;;5026155;28;20423;-72
2022/09/18 05:12:31;;;;;;;5.05;3.00;;;;;;;;;;5026284;28;20045;-72
2022/09/18 05:15:02;;;;;;;9.80;3.28;;;;;;;;;;5025571;28;20084;-72
2022/09/18 05:17:31;;;;;;;;;;;;;;;;;;5027642;28;20049;-72
2022/09/18 05:20:04;;;;;;;10.10;2.65;;;;;;;;;;5025847;28;19949;-72
2022/09/18 05:22:43;;;;;;;10.75;2.95;;;;;;;;;;5027054;28;20506;-72
2022/09/18 05:25:16;;;;;;;11.18;3.40;;;;;;;;;;5026016;28;20060;-72
2022/09/18 05:28:14;;;;;;;11.43;2.90;;;;;;;;;;5025416;28;20532;-72
2022/09/18 05:30:45;;;;;;;8.93;2.85;;;;;;;;;;5024541;28;20064;-71
2022/09/18 05:33:16;;;;;;;7.50;2.70;;;;;;;;;;5025400;28;20049;-73
2022/09/18 05:35:45;;;;;;;10.13;2.63;;;;;;;;;;5027075;28;20060;-72
2022/09/18 05:38:15;;;;;;;7.05;2.90;;;;;;;;;;5026619;28;20049;-72
2022/09/18 05:40:47;;;;;;;8.43;2.80;;;;;;;;;;5025334;28;20049;-72
2022/09/18 05:43:17;;;;;;;5.70;2.40;;;;;;;;;;5025792;28;20057;-72
2022/09/18 05:45:49;;;;;;;12.93;2.60;;;;;;;;;;5025608;28;20508;-72
2022/09/18 05:48:27;;;;;;;7.53;2.90;;;;;;;;;;5025753;28;20057;-72
2022/09/18 05:50:58;;;;;;;11.77;3.30;;;;;;;;;;5025371;28;20068;-72
2022/09/18 05:53:29;;;;;;;7.57;2.80;;;;;;;;;;5027071;28;20057;-72
2022/09/18 05:56:16;;;;;;;7.85;2.78;;;;;;;;;;5029488;28;20045;-72
2022/09/18 05:58:46;;;;;;;5.80;2.80;;;;;;;;;;5029435;28;20060;-72
2022/09/18 06:01:17;;;;;;;12.25;3.10;;;;;;;;;;5028830;28;20049;-72
2022/09/18 06:04:09;;;;;;;9.25;3.35;;;;;;;;;;5029140;28;20058;-72
2022/09/18 06:06:51;;;;;;;10.35;2.97;;;;;;;;;;5030348;28;20439;-72
2022/09/18 06:09:21;;;;;;;5.78;2.42;;;;;;;;;;5028634;28;20073;-72
2022/09/18 06:11:51;;;;;;;;;;;;;;;;;;5029267;28;20076;-72
2022/09/18 06:14:23;;;;;;;5.63;2.42;;;;;;;;;;5029621;28;19955;-72
2022/09/18 06:16:54;;;;;;;8.68;3.00;;;;;;;;;;5029092;28;20466;-71
2022/09/18 06:19:25;;;;;;;9.30;2.83;;;;;;;;;;5030547;28;20061;-72
2022/09/18 06:21:57;;;;;;;8.65;2.70;;;;;;;;;;5029620;28;20060;-72
2022/09/18 06:24:28;;;;;;;10.88;2.83;;;;;;;;;;5029158;28;20076;-73
2022/09/18 06:27:05;;;;;;;5.97;2.38;;;;;;;;;;5029271;28;20065;-72
2022/09/18 06:29:35;;;;;;;8.80;2.67;;;;;;;;;;5030422;28;20056;-72
2022/09/18 06:32:15;;;;;;;10.15;2.72;;;;;;;;;;5028780;28;20057;-72
2022/09/18 06:34:46;;;;;;;4.15;2.30;;;;;;;;;;5028996;28;20065;-72
2022/09/18 06:37:15;;;;;;;7.00;2.72;;;;;;;;;;5028574;28;20057;-72
2022/09/18 06:40:10;;;;;;;9.93;2.80;;;;;;;;;;5028040;28;20396;-71
2022/09/18 06:43:03;;;;;;;9.32;3.03;;;;;;;;;;5028724;28;20057;-72
2022/09/18 06:45:57;;;;;;;6.05;2.92;;;;;;;;;;5028080;28;20416;-72
2022/09/18 06:48:36;;;;;;;7.20;2.58;;;;;;;;;;5028512;28;20057;-72
2022/09/18 06:51:08;;;;;;;8.90;2.53;;;;;;;;;;5028521;28;20056;-71
2022/09/18 06:53:58;;;;;;;4.97;2.78;;;;;;;;;;5029798;28;20051;-72
2022/09/18 06:56:28;;;;;;;5.47;2.65;;;;;;;;;;5027943;28;20053;-72
2022/09/18 06:58:58;;;;;;;7.32;2.50;;;;;;;;;;5029741;28;20049;-71
2022/09/18 07:01:28;;;;;;;8.82;2.72;;;;;;;;;;5028174;28;20420;-71
2022/09/18 07:04:08;;;;;;;5.97;2.53;;;;;;;;;;5026911;28;20061;-72
2022/09/18 07:06:46;;;;;;;7.82;2.70;;;;;;;;;;5028755;28;20045;-72
2022/09/18 07:09:17;;;;;;;8.70;3.05;;;;;;;;;;5029731;28;20049;-72
2022/09/18 07:11:50;;;;;;;8.15;2.70;;;;;;;;;;5030917;28;20061;-72
2022/09/18 07:14:27;;;;;;;11.65;2.85;;;;;;;;;;5027847;28;20042;-71
2022/09/18 07:17:07;;;;;;;8.18;2.40;;;;;;;;;;5029196;28;20538;-72
2022/09/18 07:19:40;;;;;;;9.68;2.78;;;;;;;;;;5028160;28;20054;-72
2022/09/18 07:22:10;;;;;;;4.85;2.10;;;;;;;;;;5027299;28;20049;-72
2022/09/18 07:24:44;;;;;;;8.70;2.45;;;;;;;;;;5027993;28;20045;-71
2022/09/18 07:27:14;;;;;;;10.25;2.13;;;;;;;;;;5027442;28;20534;-71
2022/09/18 07:29:44;;;;;;;6.22;2.45;;;;;;;;;;5027692;28;20057;-71
2022/09/18 07:32:15;;;;;;;10.00;3.00;;;;;;;;;;5027253;28;20431;-71
2022/09/18 07:34:45;;;;;;;6.68;2.40;;;;;;;;;;5027097;28;20055;-72
2022/09/18 07:37:21;;;;;;;3.88;1.80;;;;;;;;;;5028714;28;20052;-72
2022/09/18 07:40:17;;;;;;;9.45;2.60;;;;;;;;;;5028417;28;20053;-72
2022/09/18 07:43:08;;;;;;;9.13;2.90;;;;;;;;;;5028525;28;20076;-72
2022/09/18 07:45:45;;;;;;;6.97;2.58;;;;;;;;;;5027328;28;20049;-71
2022/09/18 07:48:16;;;;;;;4.78;2.15;;;;;;;;;;5028198;28;20057;-72
2022/09/18 07:50:50;;;;;;;7.22;3.08;;;;;;;;;;5027942;28;20072;-71
2022/09/18 07:53:23;;;;;;;8.25;3.28;;;;;;;;;;5027726;28;20041;-71
2022/09/18 07:55:56;;;;;;;8.93;2.38;;;;;;;;;;5027155;28;20050;-72
2022/09/18 07:58:26;;;;;;;6.40;2.50;;;;;;;;;;5027398;28;20065;-71
2022/09/18 08:01:05;;;;;;;11.63;3.95;;;;;;;;;;5027521;28;20416;-72
2022/09/18 08:03:44;;;;;;;5.93;2.50;;;;;;;;;;5027155;28;20065;-72
2022/09/18 08:06:16;;;;;;;12.95;2.83;;;;;;;;;;5028179;28;20061;-71
2022/09/18 08:09:12;;;;;;;9.25;2.17;;;;;;;;;;5027861;28;20408;-71
2022/09/18 08:12:10;;;;;;;5.72;2.53;;;;;;;;;;5027485;28;20053;-71
2022/09/18 08:14:57;;;;;;;5.05;2.28;;;;;;;;;;5026456;28;20492;-71
2022/09/18 08:17:46;;;;;;;7.25;2.67;;;;;;;;;;5027373;28;20057;-72
2022/09/18 08:20:39;;;;;;;5.47;1.95;;;;;;;;;;5018429;28;20057;-71
2022/09/18 08:23:25;;;;;;;12.50;2.70;;;;;;;;;;5027230;28;20057;-72
2022/09/18 08:26:00;;;;;;;6.57;2.08;;;;;;;;;;5026894;28;20064;-71
2022/09/18 08:28:31;;;;;;;3.22;1.65;;;;;;;;;;5026746;28;20049;-71
2022/09/18 08:31:02;;;;;;;4.55;1.77;;;;;;;;;;5026705;28;20057;-71
2022/09/18 08:33:33;;;;;;;5.85;1.58;;;;;;;;;;5026969;28;20053;-71
2022/09/18 08:36:02;;;;;;;;;;;;;;;;;;5010705;28;20058;-72
2022/09/18 08:38:35;;;;;;;5.50;1.60;;;;;;;;;;5026591;28;19925;-72
2022/09/18 08:41:44;;;;;;;6.95;1.70;;;;;;;;;;5029649;28;20420;-72
2022/09/18 08:44:29;;;;;;;4.30;1.20;;;;;;;;;;5025731;28;20088;-72
2022/09/18 08:47:46;;;;;;;5.68;1.55;;;;;;;;;;5026704;28;20057;-72
2022/09/18 08:50:25;;;;;;;5.97;1.42;;;;;;;;;;5019064;28;20057;-71
2022/09/18 08:53:11;;;;;;;2.95;1.38;;;;;;;;;;5026271;28;20060;-72
2022/09/18 08:55:59;;;;;;;2.83;1.33;;;;;;;;;;5026334;28;20060;-72
2022/09/18 08:58:57;;;;;;;5.90;1.40;;;;;;;;;;5027510;28;20508;-71
2022/09/18 09:01:48;;;;;;;4.10;1.20;;;;;;;;;;5025699;28;20072;-71
2022/09/18 09:04:28;;;;;;;4.53;1.05;;;;;;;;;;5025438;28;20059;-71
2022/09/18 09:07:13;;;;;;;6.55;1.40;;;;;;;;;;5026683;28;20057;-71
2022/09/18 09:10:02;;;;;;;3.40;1.20;;;;;;;;;;5010375;28;20057;-72
2022/09/18 09:12:45;;;;;;;1.23;0.75;;;;;;;;;;5011020;28;20060;-71
2022/09/18 09:15:26;;;;;;;4.15;0.88;;;;;;;;;;5026052;28;20535;-71
2022/09/18 09:18:18;;;;;;;6.07;1.08;;;;;;;;;;5026116;28;20053;-72
2022/09/18 09:20:57;;;;;;;4.53;1.20;;;;;;;;;;5025748;28;20060;-71
2022/09/18 09:23:33;;;;;;;3.08;1.17;;;;;;;;;;5026110;28;20476;-72
2022/09/18 09:26:21;;;;;;;2.42;1.02;;;;;;;;;;5025710;28;20068;-71
2022/09/18 09:29:32;;;;;;;1.30;0.90;;;;;;;;;;5026233;28;20056;-72
2022/09/18 09:32:31;;;;;;;4.78;0.93;;;;;;;;;;5028080;28;20045;-71
2022/09/18 09:35:13;;;;;;;4.13;0.88;;;;;;;;;;5025774;28;20051;-72
2022/09/18 09:38:22;;;;;;;2.22;0.90;;;;;;;;;;5026671;28;20056;-71
2022/09/18 09:40:55;;;;;;;7.88;0.95;;;;;;;;;;5026441;28;20049;-72
2022/09/18 09:43:31;;;;;;;12.95;1.30;;;;;;;;;;5027290;28;20804;-72
2022/09/18 09:46:35;;;;;;;7.70;0.93;;;;;;;;;;5027187;28;20056;-71
2022/09/18 09:49:25;;;;;;;3.13;0.77;;;;;;;;;;5025241;28;20050;-72
2022/09/18 09:52:04;;;;;;;1.67;0.65;;;;;;;;;;5025327;28;20054;-71
2022/09/18 09:54:38;;;;;;;4.85;1.30;;;;;;;;;;5025289;28;20053;-71
2022/09/18 09:57:24;;;;;;;3.55;0.85;;;;;;;;;;5025891;28;20054;-71
2022/09/18 09:59:57;;;;;;;5.53;1.10;;;;;;;;;;5025762;28;20431;-71
2022/09/18 10:03:19;;;;;;;5.72;0.90;;;;;;;;;;5028224;28;20052;-72
2022/09/18 10:06:17;;;;;;;7.10;1.00;;;;;;;;;;5026185;28;20050;-72
2022/09/18 10:09:02;;;;;;;4.80;0.98;;;;;;;;;;5007670;28;20065;-72
2022/09/18 10:11:37;;;;;;;6.68;0.90;;;;;;;;;;5024721;28;20053;-71
2022/09/18 10:14:16;;;;;;;8.88;1.38;;;;;;;;;;5025728;28;20053;-71
2022/09/18 10:16:50;;;;;;;4.90;1.05;;;;;;;;;;5025078;28;20068;-71
2022/09/18 10:19:23;;;;;;;7.40;1.27;;;;;;;;;;5026574;28;20519;-72
2022/09/18 10:21:56;;;;;;;2.45;1.00;;;;;;;;;;5025757;28;20049;-72
2022/09/18 10:24:40;;;;;;;6.10;1.00;;;;;;;;;;5027270;28;20522;-72
2022/09/18 10:27:13;;;;;;;4.50;1.25;;;;;;;;;;5027104;28;20052;-71
2022/09/18 10:29:43;;;;;;;6.03;1.42;;;;;;;;;;5025545;28;20045;-72
2022/09/18 10:32:37;;;;;;;7.57;1.45;;;;;;;;;;5024590;28;20049;-71
2022/09/18 10:35:30;;;;;;;3.65;1.63;;;;;;;;;;5026178;28;21259;-72
2022/09/18 10:38:02;;;;;;;3.22;1.40;;;;;;;;;;5026829;28;20048;-72
2022/09/18 10:40:38;;;;;;;6.10;2.13;;;;;;;;;;5028794;28;20049;-72
2022/09/18 10:43:18;;;;;;;4.85;1.60;;;;;;;;;;5028689;28;20053;-72
2022/09/18 10:45:55;;;;;;;6.03;1.80;;;;;;;;;;5029120;28;20045;-72
2022/09/18 10:48:31;;;;;;;10.82;2.53;;;;;;;;;;5028113;28;20057;-72
2022/09/18 10:51:03;;;;;;;9.32;1.70;;;;;;;;;;5028534;28;20057;-72
2022/09/18 10:53:41;;;;;;;6.22;2.30;;;;;;;;;;5030830;28;20058;-72
2022/09/18 10:56:31;;;;;;;7.60;2.58;;;;;;;;;;5029314;28;20060;-72
2022/09/18 10:59:34;;;;;;;8.82;2.17;;;;;;;;;;5028424;28;20381;-71
2022/09/18 11:02:12;;;;;;;4.78;1.63;;;;;;;;;;5018436;28;20053;-75
2022/09/18 11:04:47;;;;;;;6.03;1.70;;;;;;;;;;5029014;28;20072;-73
2022/09/18 11:07:22;;;;;;;3.47;1.40;;;;;;;;;;5029277;28;20056;-76
2022/09/18 11:09:54;;;;;;;7.38;1.45;;;;;;;;;;5029268;28;20056;-73
2022/09/18 11:12:29;;;;;;;9.05;2.00;;;;;;;;;;5029146;28;20053;-72
2022/09/18 11:15:09;;;;;;;3.10;1.23;;;;;;;;;;5027539;28;20057;-72
2022/09/18 11:17:47;;;;;;;6.43;1.52;;;;;;;;;;5029575;28;20049;-72
2022/09/18 11:20:33;;;;;;;5.68;1.70;;;;;;;;;;5027814;28;20064;-70
2022/09/18 11:23:29;;;;;;;5.35;1.42;;;;;;;;;;5029055;28;20049;-70
2022/09/18 11:26:26;;;;;;;5.97;1.50;;;;;;;;;;5029461;28;20052;-71
2022/09/18 11:29:32;;;;;;;4.22;1.52;;;;;;;;;;5028484;28;20041;-71
2022/09/18 11:32:21;;;;;;;5.13;1.50;;;;;;;;;;5026115;28;20527;-71
2022/09/18 11:34:56;;;;;;;5.95;1.20;;;;;;;;;;5011586;28;20056;-72
2022/09/18 11:38:09;;;;;;;4.78;1.30;;;;;;;;;;5012442;28;20057;-71
2022/09/18 11:40:47;;;;;;;4.00;1.33;;;;;;;;;;4990696;28;20057;-71
2022/09/18 11:43:28;;;;;;;11.40;1.65;;;;;;;;;;5025561;28;20053;-71
2022/09/18 11:46:11;;;;;;;9.98;2.65;;;;;;;;;;5027573;28;20072;-71
2022/09/18 11:49:18;;;;;;;6.38;1.23;;;;;;;;;;5027752;28;20050;-71
2022/09/18 11:52:06;;;;;;;2.88;0.98;;;;;;;;;;5027786;28;20049;-79
2022/09/18 11:54:59;;;;;;;3.55;0.95;;;;;;;;;;5012556;28;20049;-71
2022/09/18 11:57:38;;;;;;;7.13;1.08;;;;;;;;;;5028424;28;20412;-72
2022/09/18 12:00:20;;;;;;;3.92;1.00;;;;;;;;;;5027290;28;20053;-72
2022/09/18 12:03:13;;;;;;;4.30;1.30;;;;;;;;;;5028231;28;20053;-72
2022/09/18 12:06:00;;;;;;;4.78;1.10;;;;;;;;;;5028123;28;20053;-71
2022/09/18 12:08:35;;;;;;;2.45;0.90;;;;;;;;;;5028059;28;20054;-74
2022/09/18 12:11:36;;;;;;;4.85;1.02;;;;;;;;;;5027280;28;20057;-71
2022/09/18 12:14:24;;;;;;;3.22;0.75;;;;;;;;;;5027110;28;20053;-71
2022/09/18 12:17:37;;;;;;;5.70;1.00;;;;;;;;;;5027573;28;20057;-71
2022/09/18 12:20:32;;;;;;;2.83;0.98;;;;;;;;;;5010998;28;20064;-72
2022/09/18 12:23:05;;;;;;;4.85;0.98;;;;;;;;;;5027552;28;20408;-72
2022/09/18 12:25:58;;;;;;;8.77;1.60;;;;;;;;;;5027342;28;20553;-73
2022/09/18 12:29:48;;;;;;;3.00;0.95;;;;;;;;;;5026081;28;20065;-72
2022/09/18 12:32:42;;;;;;;2.58;0.80;;;;;;;;;;4990211;28;20054;-72
2022/09/18 12:35:27;;;;;;;1.63;0.70;;;;;;;;;;5006462;28;20061;-72
2022/09/18 12:38:09;;;;;;;2.40;0.65;;;;;;;;;;5024005;28;20061;-72
2022/09/18 12:41:21;;;;;;;2.75;0.65;;;;;;;;;;5028580;28;20056;-72
2022/09/18 12:44:00;;;;;;;1.92;0.45;;;;;;;;;;5027729;28;20049;-72
2022/09/18 12:46:45;;;;;;;2.33;0.47;;;;;;;;;;5028531;28;20045;-73
2022/09/18 12:49:34;;;;;;;1.10;0.52;;;;;;;;;;5027666;28;20527;-74
2022/09/18 12:52:07;;;;;;;3.40;0.80;;;;;;;;;;5026837;28;20049;-73
2022/09/18 12:54:43;;;;;;;1.90;0.55;;;;;;;;;;5027149;28;20054;-73
2022/09/18 12:57:16;;;;;;;5.70;2.80;;;;;;;;;;5027651;28;20053;-74
2022/09/18 12:59:53;;;;;;;2.85;0.63;;;;;;;;;;5027777;28;20033;-73
2022/09/18 13:02:39;;;;;;;3.83;0.70;;;;;;;;;;5026252;28;20053;-74
2022/09/18 13:05:18;;;;;;;1.70;0.50;;;;;;;;;;5027189;28;20033;-74
2022/09/18 13:08:10;;;;;;;8.40;0.90;;;;;;;;;;5026315;28;20057;-73
2022/09/18 13:10:42;;;;;;;5.25;1.02;;;;;;;;;;5026998;28;20507;-74
2022/09/18 13:13:31;;;;;;;5.30;0.85;;;;;;;;;;5026690;28;20045;-73
2022/09/18 13:16:19;;;;;;;2.10;0.63;;;;;;;;;;5026362;28;20046;-73
2022/09/18 13:19:06;;;;;;;6.00;1.40;;;;;;;;;;5026659;28;20046;-73
2022/09/18 13:21:40;;;;;;;2.30;0.68;;;;;;;;;;5026767;28;20503;-73
2022/09/18 13:24:17;;;;;;;3.85;1.00;;;;;;;;;;5025747;28;20045;-74
2022/09/18 13:26:50;;;;;;;3.40;0.60;;;;;;;;;;5027246;28;20042;-75
2022/09/18 13:29:51;;;;;;;1.33;0.52;;;;;;;;;;5025396;28;20073;-73
2022/09/18 13:32:31;;;;;;;6.32;0.65;;;;;;;;;;5025263;28;20057;-74
2022/09/18 13:35:32;;;;;;;1.67;0.50;;;;;;;;;;5026751;28;20053;-74
2022/09/18 13:38:26;;;;;;;3.58;0.60;;;;;;;;;;5026396;28;20041;-75
2022/09/18 13:41:03;;;;;;;7.03;0.80;;;;;;;;;;5023345;28;20068;-73
2022/09/18 13:43:40;;;;;;;9.48;1.15;;;;;;;;;;5027222;28;20049;-75
2022/09/18 13:46:38;;;;;;;3.00;0.50;;;;;;;;;;5026438;28;20590;-75
2022/09/18 13:49:54;;;;;;;1.92;0.70;;;;;;;;;;5026948;28;20678;-74
2022/09/18 13:52:33;;;;;;;7.63;0.95;;;;;;;;;;5021610;28;20062;-75
2022/09/18 13:55:12;;;;;;;5.82;0.70;;;;;;;;;;5026486;28;20053;-73
2022/09/18 13:57:44;;;;;;;2.42;0.63;;;;;;;;;;5026673;28;20049;-78
2022/09/18 14:00:20;;;;;;;3.28;0.60;;;;;;;;;;5024780;28;20072;-73
2022/09/18 14:03:11;;;;;;;1.70;0.50;;;;;;;;;;5025982;28;20041;-74
2022/09/18 14:05:42;;;;;;;1.85;0.60;;;;;;;;;;5024337;28;20056;-73
2022/09/18 14:08:18;;;;;;;1.23;0.50;;;;;;;;;;5025752;28;20061;-74
2022/09/18 14:10:48;;;;;;;2.45;0.60;;;;;;;;;;5025916;28;20034;-74
2022/09/18 14:13:42;;;;;;;1.15;0.80;;;;;;;;;;5026668;28;20048;-76
2022/09/18 14:16:22;;;;;;;0.40;0.40;;;;;;;;;;5030011;28;20066;-75
2022/09/18 14:19:29;;;;;;;2.75;1.33;;;;;;;;;;5029410;28;20060;-76
2022/09/18 14:22:00;;;;;;;3.75;0.60;;;;;;;;;;5028456;28;20525;-74
2022/09/18 14:24:40;;;;;;;1.75;0.75;;;;;;;;;;5027636;28;20057;-74
2022/09/18 14:27:30;;;;;;;4.25;1.00;;;;;;;;;;5029551;28;20396;-75
2022/09/18 14:30:25;;;;;;;0.77;0.60;;;;;;;;;;5029557;28;20084;-74
2022/09/18 14:33:04;;;;;;;2.92;0.90;;;;;;;;;;5029520;28;20511;-74
2022/09/18 14:35:55;;;;;;;2.60;0.75;;;;;;;;;;5029439;28;20057;-73
2022/09/18 14:38:36;;;;;;;1.17;0.82;;;;;;;;;;5028611;28;20065;-78
2022/09/18 14:41:20;;;;;;;2.45;0.90;;;;;;;;;;5029409;28;20046;-73
2022/09/18 14:44:05;;;;;;;1.45;0.52;;;;;;;;;;5029697;28;20113;-77
2022/09/18 14:46:55;;;;;;;3.00;0.90;;;;;;;;;;5030222;28;20053;-74
2022/09/18 14:49:31;;;;;;;3.22;0.77;;;;;;;;;;5029183;28;20041;-73
2022/09/18 14:52:03;;;;;;;1.33;0.70;;;;;;;;;;5029263;28;20526;-74
2022/09/18 14:54:35;;;;;;;1.88;0.80;;;;;;;;;;5028802;28;20064;-74
2022/09/18 14:57:12;;;;;;;4.03;0.70;;;;;;;;;;5029261;28;20049;-75
2022/09/18 14:59:42;;;;;;;1.83;0.63;;;;;;;;;;5028735;28;20049;-74
2022/09/18 15:02:36;;;;;;;2.80;0.90;;;;;;;;;;5027874;28;20061;-74
2022/09/18 15:05:11;;;;;;;3.15;1.23;;;;;;;;;;5028664;28;20042;-74
2022/09/18 15:07:52;;;;;;;1.63;0.73;;;;;;;;;;5028344;28;20045;-74
2022/09/18 15:10:24;;;;;;;0.63;0.60;;;;;;;;;;5026546;28;20052;-74
2022/09/18 15:12:56;;;;;;;2.45;0.70;;;;;;;;;;5029388;28;20049;-73
2022/09/18 15:15:32;;;;;;;1.70;0.75;;;;;;;;;;5030060;28;20503;-73
2022/09/18 15:18:04;;;;;;;1.23;0.45;;;;;;;;;;5028782;28;20052;-74
2022/09/18 15:20:34;;;;;;;1.25;0.65;;;;;;;;;;5027119;28;20095;-72
2022/09/18 15:23:25;;;;;;;1.13;0.70;;;;;;;;;;5028908;28;20049;-73
2022/09/18 15:25:58;;;;;;;2.10;0.82;;;;;;;;;;5028474;28;20456;-73
2022/09/18 15:28:32;;;;;;;1.38;0.55;;;;;;;;;;5028690;28;20037;-74
2022/09/18 15:31:06;;;;;;;2.10;0.70;;;;;;;;;;5028402;28;20061;-73
2022/09/18 15:33:39;;;;;;;1.10;0.60;;;;;;;;;;5029298;28;20053;-74
2022/09/18 15:36:25;;;;;;;1.27;0.52;;;;;;;;;;5028418;28;20041;-74
2022/09/18 15:38:59;;;;;;;2.05;0.52;;;;;;;;;;5019313;28;20034;-73
2022/09/18 15:41:42;;;;;;;0.98;0.45;;;;;;;;;;5016599;28;20052;-73
2022/09/18 15:44:33;;;;;;;2.35;0.50;;;;;;;;;;5017185;28;20045;-74
2022/09/18 15:47:27;;;;;;;1.85;0.70;;;;;;;;;;5022083;28;20052;-75
2022/09/18 15:49:59;;;;;;;6.05;0.60;;;;;;;;;;5027907;28;20056;-74
2022/09/18 15:52:36;;;;;;;1.38;0.60;;;;;;;;;;5028161;28;20416;-73
2022/09/18 15:55:09;;;;;;;1.13;0.40;;;;;;;;;;5027867;28;20426;-74
2022/09/18 15:57:47;;;;;;;1.33;0.68;;;;;;;;;;5028578;28;20050;-73
2022/09/18 16:00:29;;;;;;;1.95;0.63;;;;;;;;;;5028247;28;20049;-73
2022/09/18 16:03:08;;;;;;;0.63;0.55;;;;;;;;;;5026468;28;20053;-74